sensor_id;sensor_type;location;lat;lon;timestamp;pressure;altitude;pressure_sealevel;temperature;humidity
18323;BME280;9287;49.456;11.064;2023-04-26T00:01:49;98119.41;;;6.38;100.00
18323;BME280;9287;49.456;11.064;2023-04-26T00:04:19;98117.47;;;6.38;100.00
18323;BME280;9287;49.456;11.064;2023-04-26T00:06:51;98117.97;;;6.32;100.00
18323;BME280;9287;49.456;11.064;2023-04-26T00:09:22;98117.97;;;6.32;100.00
18323;BME280;9287;49.456;11.064;2023-04-26T00:11:50;98125.47;;;6.35;100.00
18323;BME280;9287;49.456;11.064;2023-04-26T00:14:23;98126.56;;;6.34;100.00
18323;BME280;9287;49.456;11.064;2023-04-26T00:16:51;98120.81;;;6.26;100.00
18323;BME280;9287;49.456;11.064;2023-04-26T00:19:19;98121.94;;;6.25;100.00
18323;BME280;9287;49.456;11.064;2023-04-26T00:21:48;98119.72;;;6.27;100.00
18323;BME280;9287;49.456;11.064;2023-04-26T00:24:19;98108.72;;;6.15;100.00
18323;BME280;9287;49.456;11.064;2023-04-26T00:26:48;98113.81;;;6.08;100.00
18323;BME280;9287;49.456;11.064;2023-04-26T00:29:17;98119.56;;;6.07;100.00
18323;BME280;9287;49.456;11.064;2023-04-26T00:31:46;98115.75;;;6.16;100.00
18323;BME280;9287;49.456;11.064;2023-04-26T00:34:16;98119.91;;;6.22;100.00
18323;BME280;9287;49.456;11.064;2023-04-26T00:36:48;98116.69;;;6.20;100.00
18323;BME280;9287;49.456;11.064;2023-04-26T00:39:24;98118.44;;;6.08;100.00
18323;BME280;9287;49.456;11.064;2023-04-26T00:41:57;98128.97;;;6.01;100.00
18323;BME280;9287;49.456;11.064;2023-04-26T00:44:27;98127.06;;;6.01;100.00
18323;BME280;9287;49.456;11.064;2023-04-26T00:46:55;98124.97;;;5.89;100.00
18323;BME280;9287;49.456;11.064;2023-04-26T00:49:23;98127.84;;;5.93;100.00
18323;BME280;9287;49.456;11.064;2023-04-26T00:51:52;98132.94;;;5.86;99.95
18323;BME280;9287;49.456;11.064;2023-04-26T00:54:21;98132.75;;;5.82;99.21
18323;BME280;9287;49.456;11.064;2023-04-26T00:57:01;98136.13;;;5.88;98.61
18323;BME280;9287;49.456;11.064;2023-04-26T00:59:29;98137.03;;;5.75;99.23
18323;BME280;9287;49.456;11.064;2023-04-26T01:01:58;98132.25;;;5.72;100.00
18323;BME280;9287;49.456;11.064;2023-04-26T01:04:34;98131.94;;;5.65;99.98
18323;BME280;9287;49.456;11.064;2023-04-26T01:07:06;98134.66;;;5.65;100.00
18323;BME280;9287;49.456;11.064;2023-04-26T01:09:36;98142.59;;;5.61;100.00
18323;BME280;9287;49.456;11.064;2023-04-26T01:12:08;98137.00;;;5.57;100.00
18323;BME280;9287;49.456;11.064;2023-04-26T01:14:50;98130.16;;;5.60;100.00
18323;BME280;9287;49.456;11.064;2023-04-26T01:17:20;98138.78;;;5.53;100.00
18323;BME280;9287;49.456;11.064;2023-04-26T01:19:51;98148.97;;;5.56;100.00
18323;BME280;9287;49.456;11.064;2023-04-26T01:22:22;98146.56;;;5.46;100.00
18323;BME280;9287;49.456;11.064;2023-04-26T01:24:55;98143.97;;;5.33;100.00
18323;BME280;9287;49.456;11.064;2023-04-26T01:27:24;98154.31;;;5.31;100.00
18323;BME280;9287;49.456;11.064;2023-04-26T01:29:54;98142.94;;;5.20;100.00
18323;BME280;9287;49.456;11.064;2023-04-26T01:32:23;98144.56;;;5.21;100.00
18323;BME280;9287;49.456;11.064;2023-04-26T01:34:51;98152.84;;;5.16;100.00
18323;BME280;9287;49.456;11.064;2023-04-26T01:37:20;98151.41;;;5.18;100.00
18323;BME280;9287;49.456;11.064;2023-04-26T01:39:55;98144.22;;;5.14;100.00
18323;BME280;9287;49.456;11.064;2023-04-26T01:42:24;98156.28;;;5.08;100.00
18323;BME280;9287;49.456;11.064;2023-04-26T01:44:53;98146.09;;;5.05;100.00
18323;BME280;9287;49.456;11.064;2023-04-26T01:47:21;98138.75;;;5.05;100.00
18323;BME280;9287;49.456;11.064;2023-04-26T01:49:53;98153.25;;;5.01;100.00
18323;BME280;9287;49.456;11.064;2023-04-26T01:52:23;98151.16;;;4.98;100.00
18323;BME280;9287;49.456;11.064;2023-04-26T01:54:55;98154.00;;;4.93;100.00
18323;BME280;9287;49.456;11.064;2023-04-26T01:57:27;98153.16;;;4.83;100.00
18323;BME280;9287;49.456;11.064;2023-04-26T01:59:55;98156.66;;;4.84;100.00
18323;BME280;9287;49.456;11.064;2023-04-26T02:02:25;98158.44;;;4.88;100.00
18323;BME280;9287;49.456;11.064;2023-04-26T02:04:53;98156.69;;;4.93;100.00
18323;BME280;9287;49.456;11.064;2023-04-26T02:07:31;98158.44;;;4.88;100.00
18323;BME280;9287;49.456;11.064;2023-04-26T02:10:01;98155.88;;;4.83;100.00
18323;BME280;9287;49.456;11.064;2023-04-26T02:12:30;98158.44;;;4.88;100.00
18323;BME280;9287;49.456;11.064;2023-04-26T02:14:58;98160.63;;;4.86;100.00
18323;BME280;9287;49.456;11.064;2023-04-26T02:17:28;98164.09;;;4.78;100.00
18323;BME280;9287;49.456;11.064;2023-04-26T02:19:56;98159.31;;;4.75;100.00
18323;BME280;9287;49.456;11.064;2023-04-26T02:22:27;98153.69;;;4.63;100.00
18323;BME280;9287;49.456;11.064;2023-04-26T02:24:56;98160.19;;;4.62;100.00
18323;BME280;9287;49.456;11.064;2023-04-26T02:27:38;98155.41;;;4.59;100.00
18323;BME280;9287;49.456;11.064;2023-04-26T02:30:10;98156.31;;;4.54;100.00
18323;BME280;9287;49.456;11.064;2023-04-26T02:32:39;98154.56;;;4.50;100.00
18323;BME280;9287;49.456;11.064;2023-04-26T02:35:08;98158.22;;;4.54;100.00
18323;BME280;9287;49.456;11.064;2023-04-26T02:37:36;98151.59;;;4.60;100.00
18323;BME280;9287;49.456;11.064;2023-04-26T02:40:08;98155.28;;;4.64;100.00
18323;BME280;9287;49.456;11.064;2023-04-26T02:42:41;98150.00;;;4.59;100.00
18323;BME280;9287;49.456;11.064;2023-04-26T02:45:10;98163.28;;;4.47;100.00
18323;BME280;9287;49.456;11.064;2023-04-26T02:47:40;98159.50;;;4.34;100.00
18323;BME280;9287;49.456;11.064;2023-04-26T02:50:09;98154.16;;;4.20;100.00
18323;BME280;9287;49.456;11.064;2023-04-26T02:52:39;98153.31;;;4.11;100.00
18323;BME280;9287;49.456;11.064;2023-04-26T02:55:09;98159.81;;;4.10;100.00
18323;BME280;9287;49.456;11.064;2023-04-26T02:57:41;98158.13;;;4.14;100.00
18323;BME280;9287;49.456;11.064;2023-04-26T03:00:10;98151.63;;;4.15;100.00
18323;BME280;9287;49.456;11.064;2023-04-26T03:02:40;98159.81;;;4.10;100.00
18323;BME280;9287;49.456;11.064;2023-04-26T03:05:13;98158.03;;;4.06;100.00
18323;BME280;9287;49.456;11.064;2023-04-26T03:07:41;98164.03;;;4.03;100.00
18323;BME280;9287;49.456;11.064;2023-04-26T03:10:12;98167.88;;;3.88;100.00
18323;BME280;9287;49.456;11.064;2023-04-26T03:12:49;98162.59;;;3.83;100.00
18323;BME280;9287;49.456;11.064;2023-04-26T03:15:17;98160.91;;;3.73;100.00
18323;BME280;9287;49.456;11.064;2023-04-26T03:17:50;98167.72;;;3.71;100.00
18323;BME280;9287;49.456;11.064;2023-04-26T03:20:26;98164.63;;;3.64;100.00
18323;BME280;9287;49.456;11.064;2023-04-26T03:22:55;98167.75;;;3.57;100.00
18323;BME280;9287;49.456;11.064;2023-04-26T03:25:26;98170.75;;;3.56;100.00
18323;BME280;9287;49.456;11.064;2023-04-26T03:27:56;98173.16;;;3.57;100.00
18323;BME280;9287;49.456;11.064;2023-04-26T03:30:25;98175.06;;;3.57;100.00
18323;BME280;9287;49.456;11.064;2023-04-26T03:32:54;98172.94;;;3.54;100.00
18323;BME280;9287;49.456;11.064;2023-04-26T03:35:25;98175.94;;;3.52;100.00
18323;BME280;9287;49.456;11.064;2023-04-26T03:37:56;98173.56;;;3.50;100.00
18323;BME280;9287;49.456;11.064;2023-04-26T03:40:24;98173.16;;;3.43;100.00
18323;BME280;9287;49.456;11.064;2023-04-26T03:42:59;98176.56;;;3.35;100.00
18323;BME280;9287;49.456;11.064;2023-04-26T03:45:29;98181.75;;;3.32;100.00
18323;BME280;9287;49.456;11.064;2023-04-26T03:47:57;98178.97;;;3.23;100.00
18323;BME280;9287;49.456;11.064;2023-04-26T03:50:27;98184.97;;;3.20;100.00
18323;BME280;9287;49.456;11.064;2023-04-26T03:52:55;98179.16;;;3.13;100.00
18323;BME280;9287;49.456;11.064;2023-04-26T03:55:24;98179.56;;;3.20;100.00
18323;BME280;9287;49.456;11.064;2023-04-26T03:57:54;98184.97;;;3.20;100.00
18323;BME280;9287;49.456;11.064;2023-04-26T04:00:24;98185.53;;;3.17;100.00
18323;BME280;9287;49.456;11.064;2023-04-26T04:03:05;98195.84;;;3.15;100.00
18323;BME280;9287;49.456;11.064;2023-04-26T04:05:33;98186.34;;;3.18;100.00
18323;BME280;9287;49.456;11.064;2023-04-26T04:08:06;98188.75;;;3.19;100.00
18323;BME280;9287;49.456;11.064;2023-04-26T04:10:34;98189.94;;;3.13;100.00
18323;BME280;9287;49.456;11.064;2023-04-26T04:13:08;98190.56;;;3.10;100.00
18323;BME280;9287;49.456;11.064;2023-04-26T04:15:45;98194.13;;;3.05;100.00
18323;BME280;9287;49.456;11.064;2023-04-26T04:18:12;98191.66;;;3.09;100.00
18323;BME280;9287;49.456;11.064;2023-04-26T04:20:41;98190.56;;;3.10;100.00
18323;BME280;9287;49.456;11.064;2023-04-26T04:23:13;98189.34;;;3.16;100.00
18323;BME280;9287;49.456;11.064;2023-04-26T04:25:42;98185.84;;;3.15;100.00
18323;BME280;9287;49.456;11.064;2023-04-26T04:28:11;98185.16;;;3.10;100.00
18323;BME280;9287;49.456;11.064;2023-04-26T04:30:45;98198.03;;;3.13;100.00
18323;BME280;9287;49.456;11.064;2023-04-26T04:33:13;98194.75;;;3.16;100.00
18323;BME280;9287;49.456;11.064;2023-04-26T04:35:42;98202.84;;;3.16;100.00
18323;BME280;9287;49.456;11.064;2023-04-26T04:38:11;98198.03;;;3.13;100.00
18323;BME280;9287;49.456;11.064;2023-04-26T04:40:46;98205.25;;;3.18;100.00
18323;BME280;9287;49.456;11.064;2023-04-26T04:43:16;98207.72;;;3.14;100.00
18323;BME280;9287;49.456;11.064;2023-04-26T04:45:47;98211.53;;;3.13;100.00
18323;BME280;9287;49.456;11.064;2023-04-26T04:48:17;98213.03;;;3.19;100.00
18323;BME280;9287;49.456;11.064;2023-04-26T04:50:48;98210.25;;;3.24;100.00
18323;BME280;9287;49.456;11.064;2023-04-26T04:53:19;98222.53;;;3.30;100.00
18323;BME280;9287;49.456;11.064;2023-04-26T04:55:47;98215.34;;;3.39;100.00
18323;BME280;9287;49.456;11.064;2023-04-26T04:58:19;98218.94;;;3.48;100.00
18323;BME280;9287;49.456;11.064;2023-04-26T05:01:00;98228.56;;;3.55;100.00
18323;BME280;9287;49.456;11.064;2023-04-26T05:03:32;98227.88;;;3.63;100.00
18323;BME280;9287;49.456;11.064;2023-04-26T05:06:20;98225.16;;;3.76;100.00
18323;BME280;9287;49.456;11.064;2023-04-26T05:08:58;98225.34;;;3.80;100.00
18323;BME280;9287;49.456;11.064;2023-04-26T05:11:27;98221.50;;;3.81;100.00
18323;BME280;9287;49.456;11.064;2023-04-26T05:13:56;98221.91;;;3.88;100.00
18323;BME280;9287;49.456;11.064;2023-04-26T05:16:32;98228.09;;;4.02;100.00
18323;BME280;9287;49.456;11.064;2023-04-26T05:19:02;98227.50;;;4.05;100.00
18323;BME280;9287;49.456;11.064;2023-04-26T05:21:35;98238.47;;;4.23;100.00
18323;BME280;9287;49.456;11.064;2023-04-26T05:24:04;98235.06;;;4.31;100.00
18323;BME280;9287;49.456;11.064;2023-04-26T05:26:34;98238.00;;;4.43;100.00
18323;BME280;9287;49.456;11.064;2023-04-26T05:29:02;98242.19;;;4.49;100.00
18323;BME280;9287;49.456;11.064;2023-04-26T05:31:35;98243.41;;;4.43;100.00
18323;BME280;9287;49.456;11.064;2023-04-26T05:34:06;98246.63;;;4.45;100.00
18323;BME280;9287;49.456;11.064;2023-04-26T05:36:34;98247.13;;;4.47;100.00
18323;BME280;9287;49.456;11.064;2023-04-26T05:39:08;98237.59;;;4.49;100.00
18323;BME280;9287;49.456;11.064;2023-04-26T05:41:39;98245.38;;;4.51;100.00
18323;BME280;9287;49.456;11.064;2023-04-26T05:44:08;98258.78;;;4.56;100.00
18323;BME280;9287;49.456;11.064;2023-04-26T05:46:42;98256.41;;;4.77;100.00
18323;BME280;9287;49.456;11.064;2023-04-26T05:49:10;98267.28;;;4.85;100.00
18323;BME280;9287;49.456;11.064;2023-04-26T05:51:39;98263.63;;;4.68;100.00
18323;BME280;9287;49.456;11.064;2023-04-26T05:54:06;98274.78;;;4.66;100.00
18323;BME280;9287;49.456;11.064;2023-04-26T05:56:38;98268.25;;;4.89;100.00
18323;BME280;9287;49.456;11.064;2023-04-26T05:59:13;98273.06;;;4.93;100.00
18323;BME280;9287;49.456;11.064;2023-04-26T06:01:42;98271.22;;;5.02;100.00
18323;BME280;9287;49.456;11.064;2023-04-26T06:04:16;98270.47;;;5.10;100.00
18323;BME280;9287;49.456;11.064;2023-04-26T06:06:48;98268.13;;;5.17;100.00
18323;BME280;9287;49.456;11.064;2023-04-26T06:09:22;98267.25;;;5.30;100.00
18323;BME280;9287;49.456;11.064;2023-04-26T06:11:57;98274.34;;;5.48;100.00
18323;BME280;9287;49.456;11.064;2023-04-26T06:14:26;98273.44;;;5.62;100.00
18323;BME280;9287;49.456;11.064;2023-04-26T06:16:58;98282.22;;;5.67;100.00
18323;BME280;9287;49.456;11.064;2023-04-26T06:19:30;98281.00;;;5.82;100.00
18323;BME280;9287;49.456;11.064;2023-04-26T06:22:03;98277.75;;;6.02;100.00
18323;BME280;9287;49.456;11.064;2023-04-26T06:24:36;98285.09;;;6.10;99.31
18323;BME280;9287;49.456;11.064;2023-04-26T06:27:05;98283.69;;;6.21;98.04
18323;BME280;9287;49.456;11.064;2023-04-26T06:29:36;98287.38;;;6.43;95.32
18323;BME280;9287;49.456;11.064;2023-04-26T06:32:10;98286.28;;;6.52;92.87
18323;BME280;9287;49.456;11.064;2023-04-26T06:34:38;98287.09;;;6.70;90.47
18323;BME280;9287;49.456;11.064;2023-04-26T06:37:10;98280.69;;;6.66;88.87
18323;BME280;9287;49.456;11.064;2023-04-26T06:39:38;98285.66;;;6.81;89.72
18323;BME280;9287;49.456;11.064;2023-04-26T06:42:06;98284.63;;;7.29;87.75
18323;BME280;9287;49.456;11.064;2023-04-26T06:44:34;98290.78;;;7.55;83.18
18323;BME280;9287;49.456;11.064;2023-04-26T06:47:03;98291.59;;;7.94;80.34
18323;BME280;9287;49.456;11.064;2023-04-26T06:49:36;98285.13;;;8.36;74.51
18323;BME280;9287;49.456;11.064;2023-04-26T06:52:04;98291.38;;;10.02;65.92
18323;BME280;9287;49.456;11.064;2023-04-26T06:54:35;98299.19;;;11.32;55.34
18323;BME280;9287;49.456;11.064;2023-04-26T06:57:15;98282.28;;;13.49;49.83
18323;BME280;9287;49.456;11.064;2023-04-26T06:59:44;98283.25;;;15.15;45.17
18323;BME280;9287;49.456;11.064;2023-04-26T07:02:13;98287.28;;;17.33;40.31
18323;BME280;9287;49.456;11.064;2023-04-26T07:04:42;98284.28;;;18.37;36.88
18323;BME280;9287;49.456;11.064;2023-04-26T07:07:11;98295.34;;;15.44;40.03
18323;BME280;9287;49.456;11.064;2023-04-26T07:09:39;98280.34;;;18.21;37.34
18323;BME280;9287;49.456;11.064;2023-04-26T07:12:09;98288.00;;;19.36;34.80
18323;BME280;9287;49.456;11.064;2023-04-26T07:14:37;98298.81;;;19.82;33.12
18323;BME280;9287;49.456;11.064;2023-04-26T07:17:06;98295.38;;;20.23;32.59
18323;BME280;9287;49.456;11.064;2023-04-26T07:19:36;98294.53;;;17.73;34.67
18323;BME280;9287;49.456;11.064;2023-04-26T07:22:05;98293.78;;;21.04;30.41
18323;BME280;9287;49.456;11.064;2023-04-26T07:24:33;98285.22;;;21.56;29.83
18323;BME280;9287;49.456;11.064;2023-04-26T07:27:00;98289.81;;;21.05;29.75
18323;BME280;9287;49.456;11.064;2023-04-26T07:29:28;98285.66;;;19.27;32.82
18323;BME280;9287;49.456;11.064;2023-04-26T07:31:56;98286.28;;;21.92;29.60
18323;BME280;9287;49.456;11.064;2023-04-26T07:34:24;98287.13;;;21.89;29.14
18323;BME280;9287;49.456;11.064;2023-04-26T07:36:52;98290.22;;;19.66;31.36
18323;BME280;9287;49.456;11.064;2023-04-26T07:39:21;98287.22;;;21.82;29.33
18323;BME280;9287;49.456;11.064;2023-04-26T07:41:49;98286.03;;;21.52;28.69
18323;BME280;9287;49.456;11.064;2023-04-26T07:44:17;98290.03;;;19.94;30.76
18323;BME280;9287;49.456;11.064;2023-04-26T07:46:44;98286.94;;;22.27;29.04
18323;BME280;9287;49.456;11.064;2023-04-26T07:49:12;98284.06;;;23.92;26.08
18323;BME280;9287;49.456;11.064;2023-04-26T07:51:42;98287.06;;;21.35;28.48
18323;BME280;9287;49.456;11.064;2023-04-26T07:54:11;98284.03;;;23.76;26.50
18323;BME280;9287;49.456;11.064;2023-04-26T07:56:40;98286.91;;;24.24;25.25
18323;BME280;9287;49.456;11.064;2023-04-26T07:59:08;98276.25;;;23.87;25.79
18323;BME280;9287;49.456;11.064;2023-04-26T08:01:35;98285.34;;;24.23;25.19
18323;BME280;9287;49.456;11.064;2023-04-26T08:04:04;98280.56;;;22.03;27.61
18323;BME280;9287;49.456;11.064;2023-04-26T08:06:33;98286.59;;;21.10;28.85
18323;BME280;9287;49.456;11.064;2023-04-26T08:09:03;98288.16;;;21.11;28.47
18323;BME280;9287;49.456;11.064;2023-04-26T08:11:30;98283.88;;;22.87;25.42
18323;BME280;9287;49.456;11.064;2023-04-26T08:14:00;98282.19;;;22.00;26.80
18323;BME280;9287;49.456;11.064;2023-04-26T08:16:28;98283.94;;;23.43;26.34
18323;BME280;9287;49.456;11.064;2023-04-26T08:18:56;98285.69;;;22.74;26.49
18323;BME280;9287;49.456;11.064;2023-04-26T08:21:28;98282.47;;;21.25;28.23
18323;BME280;9287;49.456;11.064;2023-04-26T08:23:56;98288.22;;;21.04;28.40
18323;BME280;9287;49.456;11.064;2023-04-26T08:26:24;98283.00;;;18.99;30.64
18323;BME280;9287;49.456;11.064;2023-04-26T08:28:52;98284.28;;;16.73;33.30
18323;BME280;9287;49.456;11.064;2023-04-26T08:31:22;98286.94;;;16.58;35.03
18323;BME280;9287;49.456;11.064;2023-04-26T08:33:50;98281.16;;;18.00;33.51
18323;BME280;9287;49.456;11.064;2023-04-26T08:36:18;98281.00;;;17.36;32.50
18323;BME280;9287;49.456;11.064;2023-04-26T08:38:46;98286.19;;;15.66;34.46
18323;BME280;9287;49.456;11.064;2023-04-26T08:41:19;98287.72;;;14.40;36.15
18323;BME280;9287;49.456;11.064;2023-04-26T08:43:48;98291.38;;;12.95;38.86
18323;BME280;9287;49.456;11.064;2023-04-26T08:46:18;98285.91;;;11.62;42.14
18323;BME280;9287;49.456;11.064;2023-04-26T08:48:53;98279.75;;;13.82;39.61
18323;BME280;9287;49.456;11.064;2023-04-26T08:51:25;98283.47;;;15.70;35.43
18323;BME280;9287;49.456;11.064;2023-04-26T08:53:54;98279.56;;;18.31;31.37
18323;BME280;9287;49.456;11.064;2023-04-26T08:56:24;98282.72;;;18.12;32.11
18323;BME280;9287;49.456;11.064;2023-04-26T08:58:53;98272.44;;;17.87;32.50
18323;BME280;9287;49.456;11.064;2023-04-26T09:01:21;98268.50;;;16.15;33.79
18323;BME280;9287;49.456;11.064;2023-04-26T09:03:53;98272.59;;;15.47;33.79
18323;BME280;9287;49.456;11.064;2023-04-26T09:06:23;98274.25;;;15.55;33.32
18323;BME280;9287;49.456;11.064;2023-04-26T09:08:54;98279.78;;;14.88;34.43
18323;BME280;9287;49.456;11.064;2023-04-26T09:11:22;98278.19;;;14.87;35.67
18323;BME280;9287;49.456;11.064;2023-04-26T09:13:50;98271.38;;;16.91;32.71
18323;BME280;9287;49.456;11.064;2023-04-26T09:16:18;98269.97;;;18.89;30.71
18323;BME280;9287;49.456;11.064;2023-04-26T09:18:48;98267.84;;;19.94;28.62
18323;BME280;9287;49.456;11.064;2023-04-26T09:21:19;98279.53;;;18.45;29.35
18323;BME280;9287;49.456;11.064;2023-04-26T09:23:56;98268.41;;;16.62;31.64
18323;BME280;9287;49.456;11.064;2023-04-26T09:26:24;98271.94;;;15.57;33.12
18323;BME280;9287;49.456;11.064;2023-04-26T09:29:10;98273.94;;;15.26;33.37
18323;BME280;9287;49.456;11.064;2023-04-26T09:31:40;98267.84;;;14.77;32.17
18323;BME280;9287;49.456;11.064;2023-04-26T09:34:09;98267.47;;;15.45;31.48
18323;BME280;9287;49.456;11.064;2023-04-26T09:36:52;98257.19;;;14.19;32.93
18323;BME280;9287;49.456;11.064;2023-04-26T09:39:29;98257.50;;;13.68;34.96
18323;BME280;9287;49.456;11.064;2023-04-26T09:41:59;98261.56;;;16.35;30.75
18323;BME280;9287;49.456;11.064;2023-04-26T09:44:28;98254.19;;;17.29;29.81
18323;BME280;9287;49.456;11.064;2023-04-26T09:46:57;98255.81;;;16.58;30.52
18323;BME280;9287;49.456;11.064;2023-04-26T09:49:26;98255.06;;;14.61;33.00
18323;BME280;9287;49.456;11.064;2023-04-26T09:52:05;98254.75;;;14.67;32.89
18323;BME280;9287;49.456;11.064;2023-04-26T09:54:41;98263.25;;;14.32;32.92
18323;BME280;9287;49.456;11.064;2023-04-26T09:57:09;98256.00;;;14.20;33.01
18323;BME280;9287;49.456;11.064;2023-04-26T09:59:41;98258.50;;;13.79;34.14
18323;BME280;9287;49.456;11.064;2023-04-26T10:02:14;98252.22;;;14.28;33.23
18323;BME280;9287;49.456;11.064;2023-04-26T10:04:46;98252.00;;;14.67;32.97
18323;BME280;9287;49.456;11.064;2023-04-26T10:07:19;98249.66;;;15.69;31.18
18323;BME280;9287;49.456;11.064;2023-04-26T10:09:48;98246.56;;;16.25;30.59
18323;BME280;9287;49.456;11.064;2023-04-26T10:12:18;98241.34;;;16.10;30.13
18323;BME280;9287;49.456;11.064;2023-04-26T10:14:47;98243.00;;;16.90;29.80
18323;BME280;9287;49.456;11.064;2023-04-26T10:17:18;98238.63;;;16.17;30.95
18323;BME280;9287;49.456;11.064;2023-04-26T10:19:50;98238.94;;;16.05;32.87
18323;BME280;9287;49.456;11.064;2023-04-26T10:22:27;98249.72;;;16.31;30.93
18323;BME280;9287;49.456;11.064;2023-04-26T10:24:56;98234.63;;;16.11;30.58
18323;BME280;9287;49.456;11.064;2023-04-26T10:27:47;98242.59;;;15.35;31.57
18323;BME280;9287;49.456;11.064;2023-04-26T10:30:17;98239.19;;;15.11;32.25
18323;BME280;9287;49.456;11.064;2023-04-26T10:33:13;98239.66;;;15.54;31.94
18323;BME280;9287;49.456;11.064;2023-04-26T10:39:18;98236.22;;;15.64;32.54
18323;BME280;9287;49.456;11.064;2023-04-26T10:41:48;98230.84;;;16.33;32.34
18323;BME280;9287;49.456;11.064;2023-04-26T10:44:36;98234.63;;;15.22;33.18
18323;BME280;9287;49.456;11.064;2023-04-26T10:47:05;98245.88;;;14.24;35.34
18323;BME280;9287;49.456;11.064;2023-04-26T10:49:44;98232.06;;;13.68;35.83
18323;BME280;9287;49.456;11.064;2023-04-26T10:52:15;98232.72;;;12.07;37.80
18323;BME280;9287;49.456;11.064;2023-04-26T10:54:49;98230.88;;;11.79;39.16
18323;BME280;9287;49.456;11.064;2023-04-26T10:57:22;98233.59;;;11.95;40.02
18323;BME280;9287;49.456;11.064;2023-04-26T11:00:16;98230.47;;;12.28;39.54
18323;BME280;9287;49.456;11.064;2023-04-26T11:02:52;98221.63;;;12.19;38.97
18323;BME280;9287;49.456;11.064;2023-04-26T11:05:38;98219.81;;;12.07;38.67
18323;BME280;9287;49.456;11.064;2023-04-26T11:08:15;98218.47;;;12.17;37.96
18323;BME280;9287;49.456;11.064;2023-04-26T11:10:50;98228.75;;;11.89;38.35
18323;BME280;9287;49.456;11.064;2023-04-26T11:13:18;98226.53;;;11.63;38.56
18323;BME280;9287;49.456;11.064;2023-04-26T11:15:51;98217.19;;;12.30;37.64
18323;BME280;9287;49.456;11.064;2023-04-26T11:18:19;98226.03;;;12.78;38.04
18323;BME280;9287;49.456;11.064;2023-04-26T11:20:47;98223.25;;;13.36;36.61
18323;BME280;9287;49.456;11.064;2023-04-26T11:23:17;98214.34;;;14.41;34.87
18323;BME280;9287;49.456;11.064;2023-04-26T11:25:46;98209.44;;;14.53;35.02
18323;BME280;9287;49.456;11.064;2023-04-26T11:28:14;98209.31;;;13.67;35.68
18323;BME280;9287;49.456;11.064;2023-04-26T11:30:42;98198.75;;;13.23;35.83
18323;BME280;9287;49.456;11.064;2023-04-26T11:33:16;98205.19;;;13.35;36.26
18323;BME280;9287;49.456;11.064;2023-04-26T11:35:45;98202.38;;;14.00;35.45
18323;BME280;9287;49.456;11.064;2023-04-26T11:38:13;98205.75;;;14.16;34.89
18323;BME280;9287;49.456;11.064;2023-04-26T11:40:42;98200.06;;;14.02;34.57
18323;BME280;9287;49.456;11.064;2023-04-26T11:43:12;98192.63;;;13.79;34.64
18323;BME280;9287;49.456;11.064;2023-04-26T11:45:41;98193.56;;;13.18;35.50
18323;BME280;9287;49.456;11.064;2023-04-26T11:48:09;98198.13;;;13.34;36.13
18323;BME280;9287;49.456;11.064;2023-04-26T11:50:39;98202.16;;;13.63;35.37
18323;BME280;9287;49.456;11.064;2023-04-26T11:53:08;98198.63;;;12.97;35.60
18323;BME280;9287;49.456;11.064;2023-04-26T11:55:35;98201.50;;;13.46;35.54
18323;BME280;9287;49.456;11.064;2023-04-26T11:58:12;98203.31;;;13.16;35.78
18323;BME280;9287;49.456;11.064;2023-04-26T12:00:57;98203.09;;;12.86;36.37
18323;BME280;9287;49.456;11.064;2023-04-26T12:03:31;98200.19;;;13.17;36.15
18323;BME280;9287;49.456;11.064;2023-04-26T12:06:01;98193.06;;;13.81;35.69
18323;BME280;9287;49.456;11.064;2023-04-26T12:08:31;98202.53;;;13.61;35.86
18323;BME280;9287;49.456;11.064;2023-04-26T12:11:00;98202.41;;;13.31;36.38
18323;BME280;9287;49.456;11.064;2023-04-26T12:13:30;98199.38;;;13.59;35.34
18323;BME280;9287;49.456;11.064;2023-04-26T12:15:58;98188.72;;;13.31;35.69
18323;BME280;9287;49.456;11.064;2023-04-26T12:18:31;98193.75;;;13.52;36.06
18323;BME280;9287;49.456;11.064;2023-04-26T12:20:59;98187.09;;;13.53;35.95
18323;BME280;9287;49.456;11.064;2023-04-26T12:23:36;98196.41;;;13.71;35.20
18323;BME280;9287;49.456;11.064;2023-04-26T12:26:06;98187.44;;;13.74;35.64
18323;BME280;9287;49.456;11.064;2023-04-26T12:28:38;98179.50;;;13.92;35.00
18323;BME280;9287;49.456;11.064;2023-04-26T12:31:07;98176.78;;;14.22;35.38
18323;BME280;9287;49.456;11.064;2023-04-26T12:33:35;98185.78;;;14.19;35.13
18323;BME280;9287;49.456;11.064;2023-04-26T12:36:07;98179.03;;;14.13;35.93
18323;BME280;9287;49.456;11.064;2023-04-26T12:38:35;98175.13;;;14.14;35.53
18323;BME280;9287;49.456;11.064;2023-04-26T12:41:03;98185.91;;;14.00;34.82
18323;BME280;9287;49.456;11.064;2023-04-26T12:43:31;98178.22;;;13.37;35.71
18323;BME280;9287;49.456;11.064;2023-04-26T12:46:00;98175.53;;;13.63;35.62
18323;BME280;9287;49.456;11.064;2023-04-26T12:48:28;98184.63;;;13.67;36.45
18323;BME280;9287;49.456;11.064;2023-04-26T12:50:56;98171.94;;;13.59;35.69
18323;BME280;9287;49.456;11.064;2023-04-26T12:53:24;98171.56;;;13.38;35.97
18323;BME280;9287;49.456;11.064;2023-04-26T12:55:52;98168.97;;;13.71;35.45
18323;BME280;9287;49.456;11.064;2023-04-26T12:58:20;98160.50;;;13.11;36.33
18323;BME280;9287;49.456;11.064;2023-04-26T13:00:48;98164.38;;;13.30;36.17
18323;BME280;9287;49.456;11.064;2023-04-26T13:03:18;98162.53;;;13.14;36.18
18323;BME280;9287;49.456;11.064;2023-04-26T13:05:46;98162.53;;;13.60;36.17
18323;BME280;9287;49.456;11.064;2023-04-26T13:08:13;98151.94;;;13.36;36.15
18323;BME280;9287;49.456;11.064;2023-04-26T13:10:42;98158.06;;;13.52;35.74
18323;BME280;9287;49.456;11.064;2023-04-26T13:13:09;98153.94;;;14.14;36.14
18323;BME280;9287;49.456;11.064;2023-04-26T13:15:37;98155.66;;;14.56;35.00
18323;BME280;9287;49.456;11.064;2023-04-26T13:18:05;98145.22;;;14.09;35.06
18323;BME280;9287;49.456;11.064;2023-04-26T13:20:35;98155.81;;;13.80;36.29
18323;BME280;9287;49.456;11.064;2023-04-26T13:23:03;98160.81;;;13.52;36.90